createdAt,value
2018-04-29T00:00:39.545Z,100561.88
2018-04-29T00:03:08.826Z,100566.78
2018-04-29T00:05:37.176Z,100561.44
2018-04-29T00:08:05.521Z,100561.60
2018-04-29T00:10:33.872Z,100559.39
2018-04-29T00:13:02.214Z,100561.75
2018-04-29T00:15:30.565Z,100560.55
2018-04-29T00:17:58.896Z,100555.01
2018-04-29T00:20:27.257Z,100552.80
2018-04-29T00:22:56.344Z,100550.40
2018-04-29T00:25:24.700Z,100552.88
2018-04-29T00:27:53.037Z,100552.98
2018-04-29T00:30:21.397Z,100554.11
2018-04-29T00:32:49.728Z,100555.61
2018-04-29T00:35:18.082Z,100548.84
2018-04-29T00:37:46.421Z,100552.55
2018-04-29T00:40:14.772Z,100552.95
2018-04-29T00:42:43.097Z,100556.29
2018-04-29T00:45:11.457Z,100554.04
2018-04-29T00:47:39.784Z,100555.30
2018-04-29T00:50:08.137Z,100553.52
2018-04-29T00:52:36.473Z,100545.70
2018-04-29T00:55:04.817Z,100550.87
2018-04-29T00:57:33.140Z,100552.72
2018-04-29T01:00:01.562Z,100559.41
2018-04-29T01:02:29.864Z,100551.98
2018-04-29T01:04:58.213Z,100552.40
2018-04-29T01:07:26.546Z,100562.84
2018-04-29T01:09:54.868Z,100566.91
2018-04-29T01:12:23.220Z,100568.42
2018-04-29T01:14:51.544Z,100572.80
2018-04-29T01:17:19.892Z,100565.36
2018-04-29T01:19:48.225Z,100566.56
2018-04-29T01:22:16.577Z,100565.30
2018-04-29T01:24:44.901Z,100556.59
2018-04-29T01:27:13.252Z,100555.79
2018-04-29T01:29:41.602Z,100551.02
2018-04-29T01:32:09.953Z,100550.70
2018-04-29T01:34:38.283Z,100543.09
2018-04-29T01:37:06.632Z,100535.87
2018-04-29T01:39:34.960Z,100540.53
2018-04-29T01:42:03.309Z,100540.93
2018-04-29T01:44:31.638Z,100538.03
2018-04-29T01:46:59.988Z,100543.22
2018-04-29T01:49:28.317Z,100538.62
2018-04-29T01:51:56.671Z,100538.73
2018-04-29T01:54:24.990Z,100543.16
2018-04-29T01:56:53.339Z,100545.87
2018-04-29T01:59:21.671Z,100550.06
2018-04-29T02:01:50.021Z,100550.36
2018-04-29T02:04:18.355Z,100552.33
2018-04-29T02:06:46.695Z,100550.30
2018-04-29T02:09:15.030Z,100547.72
2018-04-29T02:11:43.377Z,100537.88
2018-04-29T02:14:11.706Z,100542.03
2018-04-29T02:16:40.060Z,100533.20
2018-04-29T02:19:08.393Z,100535.91
2018-04-29T02:21:36.751Z,100534.70
2018-04-29T02:24:05.073Z,100529.45
2018-04-29T02:26:33.425Z,100533.88
2018-04-29T02:29:01.757Z,100534.20
2018-04-29T02:31:30.256Z,100531.63
2018-04-29T02:33:58.440Z,100534.96
2018-04-29T02:36:26.789Z,100534.45
2018-04-29T02:38:55.116Z,100532.93
2018-04-29T02:41:23.472Z,100537.52
2018-04-29T02:43:51.801Z,100538.19
2018-04-29T02:46:20.150Z,100528.83
2018-04-29T02:48:48.473Z,100532.36
2018-04-29T02:51:16.821Z,100533.26
2018-04-29T02:53:45.148Z,100536.52
2018-04-29T02:56:13.495Z,100540.21
2018-04-29T02:58:41.825Z,100540.61
2018-04-29T03:01:10.173Z,100535.91
2018-04-29T03:03:38.509Z,100519.19
2018-04-29T03:06:06.861Z,100513.30
2018-04-29T03:08:35.193Z,100520.52
2018-04-29T03:11:03.517Z,100522.22
2018-04-29T03:13:31.878Z,100514.49
2018-04-29T03:16:00.213Z,100512.78
2018-04-29T03:18:28.563Z,100504.89
2018-04-29T03:20:56.885Z,100511.08
2018-04-29T03:23:25.240Z,100510.68
2018-04-29T03:25:53.569Z,100517.98
2018-04-29T03:28:21.916Z,100513.39
2018-04-29T03:30:50.245Z,100517.45
2018-04-29T03:33:18.596Z,100516.67
2018-04-29T03:35:46.929Z,100516.73
2018-04-29T03:38:15.272Z,100514.70
2018-04-29T03:40:43.605Z,100506.23
2018-04-29T03:43:11.952Z,100498.14
2018-04-29T03:45:40.276Z,100489.02
2018-04-29T03:48:08.628Z,100480.38
2018-04-29T03:50:36.956Z,100476.84
2018-04-29T03:53:05.296Z,100477.00
2018-04-29T03:55:33.619Z,100473.90
2018-04-29T03:58:13.792Z,100480.64
2018-04-29T04:00:54.000Z,100478.31
2018-04-29T04:03:33.935Z,100479.26
2018-04-29T04:06:02.264Z,100483.70
2018-04-29T04:08:30.630Z,100488.63
2018-04-29T04:10:58.964Z,100493.10
2018-04-29T04:13:27.319Z,100495.13
2018-04-29T04:15:55.654Z,100498.89
2018-04-29T04:18:24.005Z,100497.52
2018-04-29T04:20:52.333Z,100490.31
2018-04-29T04:23:20.671Z,100482.52
2018-04-29T04:25:49.020Z,100488.95
2018-04-29T04:28:17.381Z,100488.21
2018-04-29T04:30:45.738Z,100493.64
2018-04-29T04:33:14.091Z,100491.23
2018-04-29T04:35:42.425Z,100492.92
2018-04-29T04:38:10.776Z,100487.36
2018-04-29T04:40:39.100Z,100490.67
2018-04-29T04:43:07.465Z,100486.06
2018-04-29T04:45:35.809Z,100488.53
2018-04-29T04:48:04.172Z,100483.79
2018-04-29T04:50:32.551Z,100489.91
2018-04-29T04:53:00.865Z,100489.89
2018-04-29T04:55:29.217Z,100488.73
2018-04-29T04:57:57.575Z,100490.63
2018-04-29T05:00:25.910Z,100492.69
2018-04-29T05:02:54.260Z,100495.39
2018-04-29T05:05:22.597Z,100499.77
2018-04-29T05:07:50.945Z,100506.84
2018-04-29T05:10:19.284Z,100504.50
2018-04-29T05:12:47.630Z,100499.73
2018-04-29T05:15:15.965Z,100499.84
2018-04-29T05:17:44.312Z,100505.34
2018-04-29T05:20:12.648Z,100507.87
2018-04-29T05:22:40.996Z,100507.31
2018-04-29T05:25:09.328Z,100507.91
2018-04-29T05:27:37.688Z,100502.41
2018-04-29T05:30:06.022Z,100504.66
2018-04-29T05:32:34.376Z,100503.74
2018-04-29T05:35:02.717Z,100501.14
2018-04-29T05:37:31.076Z,100505.01
2018-04-29T05:39:59.419Z,100509.13
2018-04-29T05:42:27.793Z,100508.88
2018-04-29T05:44:56.140Z,100510.23
2018-04-29T05:47:24.477Z,100509.95
2018-04-29T05:49:52.856Z,100499.62
2018-04-29T05:52:21.173Z,100496.69
2018-04-29T05:54:49.521Z,100500.14
2018-04-29T05:57:17.844Z,100504.13
2018-04-29T05:59:46.197Z,100503.84
2018-04-29T06:02:14.530Z,100510.81
2018-04-29T06:04:42.891Z,100503.88
2018-04-29T06:07:11.222Z,100492.83
2018-04-29T06:09:39.586Z,100488.21
2018-04-29T06:12:08.815Z,100481.69
2018-04-29T06:14:37.125Z,100488.53
2018-04-29T06:17:05.473Z,100489.71
2018-04-29T06:19:33.837Z,100493.08
2018-04-29T06:22:02.173Z,100481.20
2018-04-29T06:24:30.554Z,100481.37
2018-04-29T06:26:58.891Z,100479.06
2018-04-29T06:29:27.246Z,100480.79
2018-04-29T06:31:55.633Z,100480.02
2018-04-29T06:34:23.948Z,100477.83
2018-04-29T06:36:52.287Z,100479.06
2018-04-29T06:39:20.650Z,100481.28
2018-04-29T06:41:48.994Z,100480.58
2018-04-29T06:44:17.345Z,100474.34
2018-04-29T06:46:45.708Z,100485.57
2018-04-29T06:49:14.046Z,100485.36
2018-04-29T06:51:42.381Z,100475.80
2018-04-29T06:54:10.737Z,100480.38
2018-04-29T06:56:39.068Z,100474.18
2018-04-29T06:59:07.421Z,100465.66
2018-04-29T07:01:35.807Z,100462.31
2018-04-29T07:04:04.125Z,100463.75
2018-04-29T07:06:33.198Z,100454.24
2018-04-29T07:09:01.562Z,100444.88
2018-04-29T07:11:29.889Z,100449.49
2018-04-29T07:13:58.252Z,100454.02
2018-04-29T07:16:26.685Z,100448.16
2018-04-29T07:18:55.037Z,100447.20
2018-04-29T07:21:23.383Z,100439.66
2018-04-29T07:23:51.733Z,100430.13
2018-04-29T07:26:20.061Z,100432.50
2018-04-29T07:28:48.681Z,100438.87
2018-04-29T07:31:17.098Z,100445.81
2018-04-29T07:33:45.478Z,100449.78
2018-04-29T07:36:14.122Z,100455.88
2018-04-29T07:38:43.558Z,100468.52
2018-04-29T07:41:12.139Z,100473.14
2018-04-29T07:43:40.758Z,100462.01
2018-04-29T07:46:09.289Z,100453.25
2018-04-29T07:48:37.629Z,100451.43
2018-04-29T07:51:06.087Z,100446.20
2018-04-29T07:53:35.105Z,100446.66
2018-04-29T07:56:04.900Z,100439.17
2018-04-29T07:58:33.395Z,100436.52
2018-04-29T08:01:02.067Z,100434.33
2018-04-29T08:03:30.393Z,100422.69
2018-04-29T08:05:58.744Z,100423.76
2018-04-29T08:08:27.088Z,100423.21
2018-04-29T08:10:55.458Z,100425.53
2018-04-29T08:13:24.363Z,100427.45
2018-04-29T08:15:53.098Z,100428.01
2018-04-29T08:18:21.436Z,100425.21
2018-04-29T08:20:49.836Z,100423.36
2018-04-29T08:23:18.215Z,100429.66
2018-04-29T08:25:48.040Z,100428.64
2018-04-29T08:28:16.706Z,100424.62
2018-04-29T08:30:45.120Z,100425.45
2018-04-29T08:33:13.608Z,100424.30
2018-04-29T08:35:42.088Z,100423.44
2018-04-29T08:38:10.446Z,100417.11
2018-04-29T08:40:38.805Z,100410.88
2018-04-29T08:43:08.204Z,100410.91
2018-04-29T08:45:37.040Z,100402.24
2018-04-29T08:48:05.477Z,100408.52
2018-04-29T08:50:35.029Z,100425.36
2018-04-29T08:53:03.385Z,100421.27
2018-04-29T08:55:32.146Z,100430.88
2018-04-29T08:58:00.977Z,100432.18
2018-04-29T09:00:31.016Z,100432.23
2018-04-29T09:03:00.716Z,100433.90
2018-04-29T09:05:29.608Z,100430.13
2018-04-29T09:07:57.940Z,100415.55
2018-04-29T09:10:26.297Z,100420.11
2018-04-29T09:12:54.744Z,100425.27
2018-04-29T09:15:23.104Z,100427.49
2018-04-29T09:17:51.441Z,100427.27
2018-04-29T09:20:19.796Z,100413.66
2018-04-29T09:22:48.128Z,100419.78
2018-04-29T09:25:16.489Z,100415.14
2018-04-29T09:27:44.824Z,100416.80
2018-04-29T09:30:13.209Z,100419.42
2018-04-29T09:32:41.952Z,100418.14
2018-04-29T09:35:10.309Z,100421.95
2018-04-29T09:37:38.637Z,100418.84
2018-04-29T09:40:06.980Z,100416.08
2018-04-29T09:42:35.314Z,100414.47
2018-04-29T09:45:03.649Z,100413.71
2018-04-29T09:47:31.981Z,100409.84
2018-04-29T09:50:00.320Z,100400.94
2018-04-29T09:52:28.636Z,100397.23
2018-04-29T09:54:56.984Z,100414.00
2018-04-29T09:57:25.321Z,100422.41
2018-04-29T09:59:53.645Z,100417.23
2018-04-29T10:02:23.900Z,100415.70
2018-04-29T10:04:52.223Z,100409.89
2018-04-29T10:07:20.572Z,100410.27
2018-04-29T10:09:48.901Z,100410.40
2018-04-29T10:12:17.250Z,100412.19
2018-04-29T10:14:45.577Z,100401.30
2018-04-29T10:17:13.930Z,100406.70
2018-04-29T10:19:42.252Z,100391.35
2018-04-29T10:22:10.597Z,100387.58
2018-04-29T10:24:39.006Z,100388.21
2018-04-29T10:27:07.277Z,100385.14
2018-04-29T10:29:35.604Z,100382.13
2018-04-29T10:32:03.956Z,100370.25
2018-04-29T10:34:32.285Z,100374.95
2018-04-29T10:37:00.632Z,100381.04
2018-04-29T10:39:28.965Z,100381.67
2018-04-29T10:41:57.312Z,100388.80
2018-04-29T10:44:25.640Z,100385.73
2018-04-29T10:46:53.993Z,100383.22
2018-04-29T10:49:22.325Z,100379.88
2018-04-29T10:51:50.668Z,100366.80
2018-04-29T10:54:19.001Z,100364.28
2018-04-29T10:56:47.540Z,100367.44
2018-04-29T10:59:15.673Z,100356.91
2018-04-29T11:01:44.029Z,100362.20
2018-04-29T11:04:12.374Z,100358.74
2018-04-29T11:06:40.692Z,100357.52
2018-04-29T11:09:09.020Z,100358.45
2018-04-29T11:11:37.369Z,100348.00
2018-04-29T11:14:05.690Z,100332.95
2018-04-29T11:16:34.031Z,100324.58
2018-04-29T11:19:02.357Z,100324.53
2018-04-29T11:21:30.707Z,100319.78
2018-04-29T11:23:59.036Z,100311.77
2018-04-29T11:26:27.389Z,100307.47
2018-04-29T11:28:55.708Z,100305.15
2018-04-29T11:31:24.057Z,100310.81
2018-04-29T11:33:52.519Z,100309.06
2018-04-29T11:36:20.788Z,100297.42
2018-04-29T11:38:49.116Z,100292.39
2018-04-29T11:41:17.464Z,100286.48
2018-04-29T11:43:45.790Z,100274.30
2018-04-29T11:46:14.140Z,100267.89
2018-04-29T11:48:42.455Z,100267.22
2018-04-29T11:51:10.805Z,100267.90
2018-04-29T11:53:39.132Z,100267.13
2018-04-29T11:56:07.486Z,100250.97
2018-04-29T11:58:35.812Z,100243.62
2018-04-29T12:01:04.145Z,100233.81
2018-04-29T12:03:32.489Z,100235.27
2018-04-29T12:06:00.808Z,100245.47
2018-04-29T12:08:29.157Z,100249.52
2018-04-29T12:10:57.480Z,100250.36
2018-04-29T12:13:25.825Z,100240.96
2018-04-29T12:15:54.151Z,100235.98
2018-04-29T12:18:22.498Z,100231.41
2018-04-29T12:20:50.817Z,100214.77
2018-04-29T12:23:19.169Z,100214.36
2018-04-29T12:25:47.492Z,100196.27
2018-04-29T12:28:15.840Z,100187.13
2018-04-29T12:30:44.161Z,100177.17
2018-04-29T12:33:12.509Z,100169.93
2018-04-29T12:35:40.835Z,100186.09
2018-04-29T12:38:09.180Z,100193.27
2018-04-29T12:40:37.505Z,100182.06
2018-04-29T12:43:05.848Z,100173.34
2018-04-29T12:45:34.168Z,100165.08
2018-04-29T12:48:02.513Z,100156.19
2018-04-29T12:50:30.840Z,100155.09
2018-04-29T12:52:59.181Z,100155.11
2018-04-29T12:55:27.499Z,100151.80
2018-04-29T12:57:55.845Z,100151.96
2018-04-29T13:00:24.189Z,100153.11
2018-04-29T13:02:52.526Z,100147.23
2018-04-29T13:05:20.841Z,100149.69
2018-04-29T13:07:49.188Z,100143.72
2018-04-29T13:10:17.515Z,100144.41
2018-04-29T13:12:45.860Z,100140.31
2018-04-29T13:15:14.183Z,100135.06
2018-04-29T13:17:42.522Z,100128.20
2018-04-29T13:20:10.844Z,100125.66
2018-04-29T13:22:39.197Z,100128.77
2018-04-29T13:25:07.524Z,100117.80
2018-04-29T13:27:35.872Z,100115.37
2018-04-29T13:30:04.193Z,100112.25
2018-04-29T13:32:32.532Z,100111.30
2018-04-29T13:35:00.856Z,100114.22
2018-04-29T13:37:29.191Z,100111.77
2018-04-29T13:39:57.520Z,100095.50
2018-04-29T13:42:25.867Z,100082.59
2018-04-29T13:44:54.179Z,100080.44
2018-04-29T13:47:22.528Z,100075.26
2018-04-29T13:49:50.853Z,100071.09
2018-04-29T13:52:19.258Z,100062.76
2018-04-29T13:54:47.515Z,100068.47
2018-04-29T13:57:15.855Z,100065.33
2018-04-29T13:59:44.204Z,100063.17
2018-04-29T14:02:12.528Z,100055.20
2018-04-29T14:04:40.871Z,100051.17
2018-04-29T14:07:09.211Z,100056.46
2018-04-29T14:09:37.528Z,100056.08
2018-04-29T14:12:05.857Z,100064.81
2018-04-29T14:14:34.196Z,100056.98
2018-04-29T14:17:02.520Z,100060.57
2018-04-29T14:19:30.865Z,100059.73
2018-04-29T14:21:59.185Z,100064.75
2018-04-29T14:24:27.536Z,100080.53
2018-04-29T14:26:55.857Z,100085.38
2018-04-29T14:29:24.203Z,100098.09
2018-04-29T14:31:52.533Z,100104.09
2018-04-29T14:34:20.877Z,100115.55
2018-04-29T14:36:49.209Z,100127.36
2018-04-29T14:39:17.553Z,100138.63
2018-04-29T14:41:45.878Z,100128.98
2018-04-29T14:44:14.219Z,100135.14
2018-04-29T14:46:42.540Z,100131.74
2018-04-29T14:49:10.884Z,100117.36
2018-04-29T14:51:39.210Z,100122.16
2018-04-29T14:54:07.561Z,100105.16
2018-04-29T14:56:35.881Z,100088.90
2018-04-29T14:59:04.224Z,100074.02
2018-04-29T15:01:32.557Z,100057.37
2018-04-29T15:04:00.909Z,100054.41
2018-04-29T15:06:29.228Z,100038.34
2018-04-29T15:08:57.568Z,100024.71
2018-04-29T15:11:25.895Z,100020.96
2018-04-29T15:13:54.245Z,100029.22
2018-04-29T15:16:22.565Z,100023.45
2018-04-29T15:18:59.688Z,100020.31
2018-04-29T15:21:28.013Z,100004.43
2018-04-29T15:23:56.383Z,99994.70
2018-04-29T15:26:24.689Z,99985.66
2018-04-29T15:28:53.049Z,99979.48
2018-04-29T15:31:21.364Z,99976.35
2018-04-29T15:33:49.705Z,99974.80
2018-04-29T15:36:18.025Z,99978.53
2018-04-29T15:38:46.373Z,99982.27
2018-04-29T15:41:14.693Z,99978.73
2018-04-29T15:43:43.052Z,99978.55
2018-04-29T15:46:11.377Z,99968.60
2018-04-29T15:48:39.729Z,99962.06
2018-04-29T15:51:08.052Z,99958.11
2018-04-29T15:53:36.401Z,99962.74
2018-04-29T15:56:04.729Z,99968.47
2018-04-29T15:58:33.075Z,99964.28
2018-04-29T16:01:01.401Z,99966.94
2018-04-29T16:03:29.793Z,99972.31
2018-04-29T16:05:58.060Z,99962.77
2018-04-29T16:08:26.389Z,99968.79
2018-04-29T16:10:54.732Z,99963.50
2018-04-29T16:13:23.066Z,99970.00
2018-04-29T16:15:51.417Z,99961.18
2018-04-29T16:18:19.744Z,99965.27
2018-04-29T16:20:48.090Z,99961.13
2018-04-29T16:23:16.469Z,99954.61
2018-04-29T16:25:46.577Z,99945.06
2018-04-29T16:28:15.565Z,99938.67
2018-04-29T16:30:45.597Z,99933.76
2018-04-29T16:33:14.520Z,99930.44
2018-04-29T16:35:44.574Z,99934.92
2018-04-29T16:38:14.640Z,99926.75
2018-04-29T16:40:42.901Z,99925.85
2018-04-29T16:43:11.229Z,99924.20
2018-04-29T16:45:39.568Z,99922.89
2018-04-29T16:54:17.513Z,99912.75
2018-04-29T16:56:45.841Z,99912.14
2018-04-29T16:59:14.185Z,99907.69
2018-04-29T17:01:42.513Z,99907.03
2018-04-29T17:04:10.860Z,99909.64
2018-04-29T17:06:40.796Z,99907.13
2018-04-29T17:09:09.144Z,99908.16
2018-04-29T17:11:37.478Z,99900.91
2018-04-29T17:14:05.809Z,99902.37
2018-04-29T17:16:34.165Z,99909.13
2018-04-29T17:19:02.489Z,99904.73
2018-04-29T17:21:30.823Z,99899.23
2018-04-29T17:23:59.153Z,99900.64
2018-04-29T17:26:27.496Z,99888.58
2018-04-29T17:28:55.829Z,99888.44
2018-04-29T17:31:24.176Z,99881.70
2018-04-29T17:33:52.497Z,99882.59
2018-04-29T17:36:20.846Z,99884.13
2018-04-29T17:38:49.169Z,99872.58
2018-04-29T17:41:17.504Z,99872.41
2018-04-29T17:43:45.820Z,99868.68
2018-04-29T17:46:46.641Z,99870.41
2018-04-29T17:49:14.960Z,99867.30
2018-04-29T17:51:43.304Z,99864.75
2018-04-29T17:54:11.625Z,99857.27
2018-04-29T17:59:48.237Z,99867.23
2018-04-29T18:02:16.556Z,99866.29
2018-04-29T18:04:44.888Z,99868.81
2018-04-29T18:07:13.218Z,99865.16
2018-04-29T18:09:41.577Z,99865.52
2018-04-29T18:18:29.974Z,99866.80
2018-04-29T18:20:58.332Z,99863.32
2018-04-29T19:07:22.480Z,99815.48
2018-04-29T19:09:50.796Z,99820.14
2018-04-29T19:12:19.140Z,99816.73
2018-04-29T19:14:47.451Z,99819.59
2018-04-29T19:17:15.801Z,99825.47
2018-04-29T19:19:44.121Z,99823.97
2018-04-29T19:22:12.480Z,99818.67
2018-04-29T19:24:40.796Z,99811.42
2018-04-29T19:27:09.138Z,99806.02
2018-04-29T19:29:37.460Z,99806.70
2018-04-29T19:32:05.805Z,99801.68
2018-04-29T19:34:34.124Z,99798.59
2018-04-29T19:37:02.501Z,99795.61
2018-04-29T19:39:30.805Z,99795.29
2018-04-29T19:41:59.149Z,99793.20
2018-04-29T19:44:27.477Z,99790.06
2018-04-29T19:46:55.827Z,99794.51
2018-04-29T19:49:24.136Z,99790.62
2018-04-29T19:51:52.480Z,99791.32
2018-04-29T19:54:20.792Z,99783.88
2018-04-29T19:56:49.132Z,99777.53
2018-04-29T19:59:17.453Z,99770.58
2018-04-29T20:01:45.797Z,99768.91
2018-04-29T20:04:14.107Z,99764.52
2018-04-29T20:06:42.457Z,99761.19
2018-04-29T20:09:10.780Z,99754.95
2018-04-29T20:11:39.119Z,99752.98
2018-04-29T20:14:07.445Z,99751.02
2018-04-29T20:16:35.780Z,99751.64
2018-04-29T20:19:04.103Z,99749.97
2018-04-29T20:21:32.458Z,99739.05
2018-04-29T20:24:00.767Z,99735.46
2018-04-29T20:26:29.106Z,99730.03
2018-04-29T20:28:57.440Z,99725.30
2018-04-29T20:31:25.797Z,99720.79
2018-04-29T20:33:54.112Z,99723.30
2018-04-29T20:36:22.477Z,99715.56
2018-04-29T20:38:50.788Z,99716.69
2018-04-29T20:41:19.147Z,99706.52
2018-04-29T20:43:47.468Z,99697.45
2018-04-29T20:46:15.803Z,99686.83
2018-04-29T20:48:44.122Z,99688.50
2018-04-29T20:51:12.440Z,99676.48
2018-04-29T20:53:40.781Z,99666.70
2018-04-29T20:56:09.100Z,99670.89
2018-04-29T20:58:37.435Z,99657.03
2018-04-29T21:01:05.748Z,99648.81
2018-04-29T21:03:34.099Z,99639.84
2018-04-29T21:06:02.417Z,99639.06
2018-04-29T21:08:30.760Z,99621.23
2018-04-29T21:10:59.091Z,99623.03
2018-04-29T21:13:27.434Z,99611.52
2018-04-29T21:15:55.751Z,99604.91
2018-04-29T21:18:24.092Z,99590.85
2018-04-29T21:20:52.415Z,99586.19
2018-04-29T21:23:20.748Z,99586.59
2018-04-29T21:25:49.080Z,99574.53
2018-04-29T21:28:17.427Z,99566.09
2018-04-29T21:30:45.747Z,99565.98
2018-04-29T21:33:14.084Z,99556.64
2018-04-29T21:35:42.411Z,99563.70
2018-04-29T21:38:10.751Z,99559.18
2018-04-29T21:40:39.069Z,99564.07
2018-04-29T21:43:07.408Z,99557.59
2018-04-29T21:45:35.729Z,99554.45
2018-04-29T21:48:04.068Z,99555.12
2018-04-29T21:50:32.384Z,99545.69
2018-04-29T21:53:00.726Z,99546.09
2018-04-29T21:55:29.048Z,99544.92
2018-04-29T21:57:57.393Z,99538.03
2018-04-29T22:00:25.713Z,99540.47
2018-04-29T22:02:54.057Z,99538.50
2018-04-29T22:05:22.373Z,99533.09
2018-04-29T22:07:50.722Z,99532.47
2018-04-29T22:10:19.028Z,99526.50
2018-04-29T22:12:47.368Z,99520.86
2018-04-29T22:15:15.692Z,99522.91
2018-04-29T22:17:44.036Z,99520.37
2018-04-29T22:20:12.356Z,99517.61
2018-04-29T22:22:40.693Z,99519.30
2018-04-29T22:25:09.008Z,99505.04
2018-04-29T22:27:37.361Z,99492.47
2018-04-29T22:30:05.664Z,99487.59
2018-04-29T22:32:34.000Z,99485.45
2018-04-29T22:35:02.323Z,99486.19
2018-04-29T22:37:30.665Z,99481.27
2018-04-29T22:39:58.984Z,99481.52
2018-04-29T22:42:27.338Z,99465.02
2018-04-29T22:44:55.656Z,99465.30
2018-04-29T22:47:23.992Z,99456.75
2018-04-29T22:49:52.312Z,99464.10
2018-04-29T22:52:20.659Z,99451.69
2018-04-29T22:54:48.981Z,99453.34
2018-04-29T22:57:17.296Z,99446.38
2018-04-29T22:59:45.642Z,99441.84
2018-04-29T23:02:13.959Z,99444.08
2018-04-29T23:04:42.287Z,99443.11
2018-04-29T23:07:10.605Z,99441.41
2018-04-29T23:09:39.148Z,99424.52
2018-04-29T23:12:07.464Z,99421.05
2018-04-29T23:14:35.801Z,99415.92
2018-04-29T23:17:04.125Z,99413.14
2018-04-29T23:19:32.460Z,99406.84
2018-04-29T23:22:00.785Z,99401.86
2018-04-29T23:24:29.125Z,99395.67
2018-04-29T23:26:57.440Z,99401.69
2018-04-29T23:29:25.785Z,99391.87
2018-04-29T23:31:54.096Z,99393.38
2018-04-29T23:34:22.436Z,99391.11
2018-04-29T23:36:50.758Z,99381.37
2018-04-29T23:39:19.093Z,99376.84
2018-04-29T23:41:47.412Z,99368.59
2018-04-29T23:44:15.758Z,99362.41
2018-04-29T23:46:44.076Z,99347.14
2018-04-29T23:49:12.412Z,99344.33
2018-04-29T23:51:40.727Z,99338.53
2018-04-29T23:54:09.066Z,99339.63
2018-04-29T23:56:37.385Z,99335.95
2018-04-29T23:59:05.724Z,99332.13
